Archival Weather

Rochelle Muni/Koritz Fld

Rochelle, Illinois (KRPJ)

Report from: Sunday, February 5, 2023 8:35 AM CST
Current time: Friday, June 21, 2024 6:11 PM CDT

Current weather – Weather history – Daily summaries
Weather forecast

Temperature-0.4°C (31.3°F)
Wind chill-5.2°C (22.7°F)
Dew point-1.4°C (29.5°F)
Winds 9 kts (4.6 m/s, 10.4 mph) West (270°)
Visibility10 mi. (16.1 km)
Clouds Sky clear
Altimeter29.88 in.Hg (1012 mB)
Relative humidity93 %
Density altitude-1,752 ft. (-534 m)
Remarks Fully automated report
Automated weather observing station with precipitation discriminator
Lightning detection system not operating
Flight conditions Visual Meteorological Conditions
Raw dataKRPJ 051435Z AUTO 27009KT 10SM CLR 00/M01 A2988 RMK AO2 T10041014 TSNO
An error has occurred. This application may no longer respond until reloaded. Reload 🗙